sensor_id;sensor_type;location;lat;lon;timestamp;P1;durP1;ratioP1;P2;durP2;ratioP2
22236;SDS011;11287;48.122;11.536;2023-07-29T00:01:34;12.13;;;6.13;;
22236;SDS011;11287;48.122;11.536;2023-07-29T00:03:59;8.05;;;6.35;;
22236;SDS011;11287;48.122;11.536;2023-07-29T00:06:25;6.28;;;5.57;;
22236;SDS011;11287;48.122;11.536;2023-07-29T00:08:51;10.27;;;6.13;;
22236;SDS011;11287;48.122;11.536;2023-07-29T00:11:17;9.45;;;6.05;;
22236;SDS011;11287;48.122;11.536;2023-07-29T00:13:42;9.70;;;6.20;;
22236;SDS011;11287;48.122;11.536;2023-07-29T00:16:07;7.70;;;6.25;;
22236;SDS011;11287;48.122;11.536;2023-07-29T00:18:33;6.90;;;5.78;;
22236;SDS011;11287;48.122;11.536;2023-07-29T00:20:58;8.38;;;6.47;;
22236;SDS011;11287;48.122;11.536;2023-07-29T00:23:24;7.95;;;6.03;;
22236;SDS011;11287;48.122;11.536;2023-07-29T00:25:49;8.02;;;5.93;;
22236;SDS011;11287;48.122;11.536;2023-07-29T00:28:14;12.40;;;5.57;;
22236;SDS011;11287;48.122;11.536;2023-07-29T00:30:40;6.95;;;6.25;;
22236;SDS011;11287;48.122;11.536;2023-07-29T00:33:05;8.52;;;5.65;;
22236;SDS011;11287;48.122;11.536;2023-07-29T00:35:30;6.53;;;5.50;;
22236;SDS011;11287;48.122;11.536;2023-07-29T00:37:56;9.55;;;5.70;;
22236;SDS011;11287;48.122;11.536;2023-07-29T00:40:21;6.85;;;5.82;;
22236;SDS011;11287;48.122;11.536;2023-07-29T00:42:47;7.45;;;5.88;;
22236;SDS011;11287;48.122;11.536;2023-07-29T00:45:13;6.72;;;5.30;;
22236;SDS011;11287;48.122;11.536;2023-07-29T00:47:38;7.35;;;5.05;;
22236;SDS011;11287;48.122;11.536;2023-07-29T00:50:05;7.20;;;5.28;;
22236;SDS011;11287;48.122;11.536;2023-07-29T00:52:31;7.63;;;5.43;;
22236;SDS011;11287;48.122;11.536;2023-07-29T00:54:57;6.20;;;5.15;;
22236;SDS011;11287;48.122;11.536;2023-07-29T00:57:22;6.18;;;5.55;;
22236;SDS011;11287;48.122;11.536;2023-07-29T00:59:50;10.43;;;6.10;;
22236;SDS011;11287;48.122;11.536;2023-07-29T01:02:15;6.32;;;5.28;;
22236;SDS011;11287;48.122;11.536;2023-07-29T01:04:41;6.85;;;5.72;;
22236;SDS011;11287;48.122;11.536;2023-07-29T01:07:11;5.72;;;5.05;;
22236;SDS011;11287;48.122;11.536;2023-07-29T01:10:00;7.90;;;4.97;;
22236;SDS011;11287;48.122;11.536;2023-07-29T01:15:19;6.05;;;5.00;;
22236;SDS011;11287;48.122;11.536;2023-07-29T01:17:48;6.90;;;5.38;;
22236;SDS011;11287;48.122;11.536;2023-07-29T01:20:15;6.20;;;4.97;;
22236;SDS011;11287;48.122;11.536;2023-07-29T01:22:41;5.75;;;4.68;;
22236;SDS011;11287;48.122;11.536;2023-07-29T01:25:07;6.47;;;5.00;;
22236;SDS011;11287;48.122;11.536;2023-07-29T01:27:32;5.30;;;4.75;;
22236;SDS011;11287;48.122;11.536;2023-07-29T01:29:58;10.60;;;5.43;;
22236;SDS011;11287;48.122;11.536;2023-07-29T01:35:18;7.50;;;4.70;;
22236;SDS011;11287;48.122;11.536;2023-07-29T01:38:54;7.53;;;5.45;;
22236;SDS011;11287;48.122;11.536;2023-07-29T01:40:50;9.23;;;5.28;;
22236;SDS011;11287;48.122;11.536;2023-07-29T01:43:16;5.65;;;4.72;;
22236;SDS011;11287;48.122;11.536;2023-07-29T01:45:43;8.02;;;4.93;;
22236;SDS011;11287;48.122;11.536;2023-07-29T01:48:09;6.57;;;5.03;;
22236;SDS011;11287;48.122;11.536;2023-07-29T01:50:34;6.45;;;4.60;;
22236;SDS011;11287;48.122;11.536;2023-07-29T01:52:59;6.38;;;4.65;;
22236;SDS011;11287;48.122;11.536;2023-07-29T01:55:25;5.25;;;4.63;;
22236;SDS011;11287;48.122;11.536;2023-07-29T01:57:50;5.05;;;4.55;;
22236;SDS011;11287;48.122;11.536;2023-07-29T02:00:16;6.32;;;4.53;;
22236;SDS011;11287;48.122;11.536;2023-07-29T02:02:43;7.68;;;4.53;;
22236;SDS011;11287;48.122;11.536;2023-07-29T02:05:08;4.85;;;4.32;;
22236;SDS011;11287;48.122;11.536;2023-07-29T02:07:33;8.27;;;4.60;;
22236;SDS011;11287;48.122;11.536;2023-07-29T02:09:59;9.13;;;4.70;;
22236;SDS011;11287;48.122;11.536;2023-07-29T02:12:24;6.10;;;4.57;;
22236;SDS011;11287;48.122;11.536;2023-07-29T02:14:49;5.63;;;4.15;;
22236;SDS011;11287;48.122;11.536;2023-07-29T02:17:15;4.68;;;4.28;;
22236;SDS011;11287;48.122;11.536;2023-07-29T02:19:40;6.97;;;4.25;;
22236;SDS011;11287;48.122;11.536;2023-07-29T02:22:05;9.50;;;4.60;;
22236;SDS011;11287;48.122;11.536;2023-07-29T02:24:31;5.60;;;4.72;;
22236;SDS011;11287;48.122;11.536;2023-07-29T02:26:56;5.13;;;4.32;;
22236;SDS011;11287;48.122;11.536;2023-07-29T02:29:21;6.88;;;4.43;;
22236;SDS011;11287;48.122;11.536;2023-07-29T02:31:47;6.07;;;4.55;;
22236;SDS011;11287;48.122;11.536;2023-07-29T02:34:12;7.50;;;4.53;;
22236;SDS011;11287;48.122;11.536;2023-07-29T02:36:38;5.95;;;4.45;;
22236;SDS011;11287;48.122;11.536;2023-07-29T02:39:03;7.15;;;4.30;;
22236;SDS011;11287;48.122;11.536;2023-07-29T02:41:29;4.53;;;4.10;;
22236;SDS011;11287;48.122;11.536;2023-07-29T02:43:54;7.03;;;4.10;;
22236;SDS011;11287;48.122;11.536;2023-07-29T02:46:20;6.32;;;4.65;;
22236;SDS011;11287;48.122;11.536;2023-07-29T02:48:45;5.55;;;4.55;;
22236;SDS011;11287;48.122;11.536;2023-07-29T02:51:10;8.80;;;4.50;;
22236;SDS011;11287;48.122;11.536;2023-07-29T02:53:35;7.00;;;4.40;;
22236;SDS011;11287;48.122;11.536;2023-07-29T02:56:04;10.15;;;4.60;;
22236;SDS011;11287;48.122;11.536;2023-07-29T02:58:29;6.07;;;3.92;;
22236;SDS011;11287;48.122;11.536;2023-07-29T03:01:02;5.20;;;4.00;;
22236;SDS011;11287;48.122;11.536;2023-07-29T03:03:28;4.63;;;4.13;;
22236;SDS011;11287;48.122;11.536;2023-07-29T03:06:01;5.80;;;3.83;;
22236;SDS011;11287;48.122;11.536;2023-07-29T03:08:28;5.32;;;4.32;;
22236;SDS011;11287;48.122;11.536;2023-07-29T03:10:54;6.43;;;3.78;;
22236;SDS011;11287;48.122;11.536;2023-07-29T03:13:20;4.88;;;3.92;;
22236;SDS011;11287;48.122;11.536;2023-07-29T03:15:45;5.97;;;3.70;;
22236;SDS011;11287;48.122;11.536;2023-07-29T03:18:10;6.00;;;4.30;;
22236;SDS011;11287;48.122;11.536;2023-07-29T03:20:36;4.43;;;3.78;;
22236;SDS011;11287;48.122;11.536;2023-07-29T03:23:01;3.72;;;3.28;;
22236;SDS011;11287;48.122;11.536;2023-07-29T03:25:27;4.22;;;3.03;;
22236;SDS011;11287;48.122;11.536;2023-07-29T03:27:53;4.78;;;3.40;;
22236;SDS011;11287;48.122;11.536;2023-07-29T03:30:19;5.32;;;3.20;;
22236;SDS011;11287;48.122;11.536;2023-07-29T03:32:46;6.38;;;3.20;;
22236;SDS011;11287;48.122;11.536;2023-07-29T03:35:11;6.75;;;3.72;;
22236;SDS011;11287;48.122;11.536;2023-07-29T03:37:36;2.88;;;2.60;;
22236;SDS011;11287;48.122;11.536;2023-07-29T03:40:02;4.63;;;2.88;;
22236;SDS011;11287;48.122;11.536;2023-07-29T03:42:28;2.55;;;2.35;;
22236;SDS011;11287;48.122;11.536;2023-07-29T03:44:53;4.55;;;2.28;;
22236;SDS011;11287;48.122;11.536;2023-07-29T03:47:18;3.22;;;2.38;;
22236;SDS011;11287;48.122;11.536;2023-07-29T03:49:44;2.95;;;2.53;;
22236;SDS011;11287;48.122;11.536;2023-07-29T03:52:09;5.70;;;2.22;;
22236;SDS011;11287;48.122;11.536;2023-07-29T03:54:35;2.30;;;2.05;;
22236;SDS011;11287;48.122;11.536;2023-07-29T03:57:01;3.20;;;2.20;;
22236;SDS011;11287;48.122;11.536;2023-07-29T03:59:26;2.47;;;1.95;;
22236;SDS011;11287;48.122;11.536;2023-07-29T04:01:51;2.33;;;2.13;;
22236;SDS011;11287;48.122;11.536;2023-07-29T04:04:17;2.83;;;2.20;;
22236;SDS011;11287;48.122;11.536;2023-07-29T04:06:42;2.38;;;2.17;;
22236;SDS011;11287;48.122;11.536;2023-07-29T04:09:07;5.18;;;2.40;;
22236;SDS011;11287;48.122;11.536;2023-07-29T04:11:33;2.40;;;2.13;;
22236;SDS011;11287;48.122;11.536;2023-07-29T04:13:58;2.20;;;2.00;;
22236;SDS011;11287;48.122;11.536;2023-07-29T04:16:24;2.47;;;2.28;;
22236;SDS011;11287;48.122;11.536;2023-07-29T04:18:49;2.42;;;2.22;;
22236;SDS011;11287;48.122;11.536;2023-07-29T04:21:14;3.00;;;2.15;;
22236;SDS011;11287;48.122;11.536;2023-07-29T04:23:39;2.50;;;2.30;;
22236;SDS011;11287;48.122;11.536;2023-07-29T04:26:05;3.03;;;2.53;;
22236;SDS011;11287;48.122;11.536;2023-07-29T04:28:31;2.90;;;2.30;;
22236;SDS011;11287;48.122;11.536;2023-07-29T04:30:56;5.20;;;2.40;;
22236;SDS011;11287;48.122;11.536;2023-07-29T04:33:21;2.78;;;2.22;;
22236;SDS011;11287;48.122;11.536;2023-07-29T04:35:47;4.10;;;2.60;;
22236;SDS011;11287;48.122;11.536;2023-07-29T04:38:12;3.72;;;2.33;;
22236;SDS011;11287;48.122;11.536;2023-07-29T04:40:37;4.10;;;2.20;;
22236;SDS011;11287;48.122;11.536;2023-07-29T04:43:03;2.28;;;2.08;;
22236;SDS011;11287;48.122;11.536;2023-07-29T04:45:28;2.72;;;2.40;;
22236;SDS011;11287;48.122;11.536;2023-07-29T04:47:54;2.90;;;2.22;;
22236;SDS011;11287;48.122;11.536;2023-07-29T04:50:20;2.20;;;2.00;;
22236;SDS011;11287;48.122;11.536;2023-07-29T04:52:45;2.65;;;2.03;;
22236;SDS011;11287;48.122;11.536;2023-07-29T04:55:10;3.00;;;2.25;;
22236;SDS011;11287;48.122;11.536;2023-07-29T04:57:35;2.53;;;1.88;;
22236;SDS011;11287;48.122;11.536;2023-07-29T05:00:01;3.47;;;2.08;;
22236;SDS011;11287;48.122;11.536;2023-07-29T05:02:28;2.10;;;1.95;;
22236;SDS011;11287;48.122;11.536;2023-07-29T05:04:53;1.70;;;1.60;;
22236;SDS011;11287;48.122;11.536;2023-07-29T05:07:18;2.13;;;1.73;;
22236;SDS011;11287;48.122;11.536;2023-07-29T05:09:44;1.80;;;1.70;;
22236;SDS011;11287;48.122;11.536;2023-07-29T05:12:09;1.80;;;1.70;;
22236;SDS011;11287;48.122;11.536;2023-07-29T05:14:34;2.00;;;1.80;;
22236;SDS011;11287;48.122;11.536;2023-07-29T05:16:59;1.70;;;1.60;;
22236;SDS011;11287;48.122;11.536;2023-07-29T05:19:25;1.83;;;1.67;;
22236;SDS011;11287;48.122;11.536;2023-07-29T05:21:51;1.73;;;1.55;;
22236;SDS011;11287;48.122;11.536;2023-07-29T05:24:16;1.70;;;1.52;;
22236;SDS011;11287;48.122;11.536;2023-07-29T05:26:41;2.00;;;1.77;;
22236;SDS011;11287;48.122;11.536;2023-07-29T05:29:07;2.13;;;1.63;;
22236;SDS011;11287;48.122;11.536;2023-07-29T05:31:32;1.88;;;1.77;;
22236;SDS011;11287;48.122;11.536;2023-07-29T05:33:58;3.10;;;2.03;;
22236;SDS011;11287;48.122;11.536;2023-07-29T05:36:24;1.70;;;1.60;;
22236;SDS011;11287;48.122;11.536;2023-07-29T05:38:49;1.80;;;1.70;;
22236;SDS011;11287;48.122;11.536;2023-07-29T05:41:15;1.75;;;1.63;;
22236;SDS011;11287;48.122;11.536;2023-07-29T05:43:40;3.42;;;1.73;;
22236;SDS011;11287;48.122;11.536;2023-07-29T05:46:08;2.05;;;1.85;;
22236;SDS011;11287;48.122;11.536;2023-07-29T05:48:33;2.65;;;1.42;;
22236;SDS011;11287;48.122;11.536;2023-07-29T05:50:58;4.50;;;1.55;;
22236;SDS011;11287;48.122;11.536;2023-07-29T05:53:24;1.65;;;1.50;;
22236;SDS011;11287;48.122;11.536;2023-07-29T05:55:49;1.58;;;1.38;;
22236;SDS011;11287;48.122;11.536;2023-07-29T05:58:14;3.63;;;1.75;;
22236;SDS011;11287;48.122;11.536;2023-07-29T06:00:40;1.50;;;1.40;;
22236;SDS011;11287;48.122;11.536;2023-07-29T06:03:05;4.75;;;2.05;;
22236;SDS011;11287;48.122;11.536;2023-07-29T06:05:30;8.63;;;2.75;;
22236;SDS011;11287;48.122;11.536;2023-07-29T06:07:56;5.03;;;2.80;;
22236;SDS011;11287;48.122;11.536;2023-07-29T06:10:21;5.72;;;1.85;;
22236;SDS011;11287;48.122;11.536;2023-07-29T06:12:47;5.43;;;1.90;;
22236;SDS011;11287;48.122;11.536;2023-07-29T06:15:13;4.05;;;2.03;;
22236;SDS011;11287;48.122;11.536;2023-07-29T06:17:39;4.25;;;2.47;;
22236;SDS011;11287;48.122;11.536;2023-07-29T06:20:06;3.83;;;2.47;;
22236;SDS011;11287;48.122;11.536;2023-07-29T06:22:31;2.95;;;1.88;;
22236;SDS011;11287;48.122;11.536;2023-07-29T06:24:56;3.00;;;2.10;;
22236;SDS011;11287;48.122;11.536;2023-07-29T06:27:22;2.30;;;2.00;;
22236;SDS011;11287;48.122;11.536;2023-07-29T06:29:47;2.20;;;2.00;;
22236;SDS011;11287;48.122;11.536;2023-07-29T06:32:12;3.85;;;2.03;;
22236;SDS011;11287;48.122;11.536;2023-07-29T06:34:38;1.90;;;1.80;;
22236;SDS011;11287;48.122;11.536;2023-07-29T06:37:03;1.90;;;1.75;;
22236;SDS011;11287;48.122;11.536;2023-07-29T06:39:28;2.90;;;1.83;;
22236;SDS011;11287;48.122;11.536;2023-07-29T06:41:54;2.83;;;2.10;;
22236;SDS011;11287;48.122;11.536;2023-07-29T06:44:19;2.05;;;1.67;;
22236;SDS011;11287;48.122;11.536;2023-07-29T06:46:44;3.08;;;2.00;;
22236;SDS011;11287;48.122;11.536;2023-07-29T06:49:10;2.70;;;2.10;;
22236;SDS011;11287;48.122;11.536;2023-07-29T06:51:35;2.88;;;1.98;;
22236;SDS011;11287;48.122;11.536;2023-07-29T06:54:03;4.03;;;2.45;;
22236;SDS011;11287;48.122;11.536;2023-07-29T06:56:29;5.05;;;2.47;;
22236;SDS011;11287;48.122;11.536;2023-07-29T06:58:54;7.38;;;2.20;;
22236;SDS011;11287;48.122;11.536;2023-07-29T07:01:19;5.97;;;2.70;;
22236;SDS011;11287;48.122;11.536;2023-07-29T07:03:45;4.40;;;2.83;;
22236;SDS011;11287;48.122;11.536;2023-07-29T07:06:10;2.92;;;2.63;;
22236;SDS011;11287;48.122;11.536;2023-07-29T07:08:35;3.22;;;2.90;;
22236;SDS011;11287;48.122;11.536;2023-07-29T07:11:01;7.05;;;2.90;;
22236;SDS011;11287;48.122;11.536;2023-07-29T07:13:26;5.25;;;2.65;;
22236;SDS011;11287;48.122;11.536;2023-07-29T07:15:54;7.03;;;3.08;;
22236;SDS011;11287;48.122;11.536;2023-07-29T07:18:20;6.53;;;3.03;;
22236;SDS011;11287;48.122;11.536;2023-07-29T07:20:48;4.70;;;3.30;;
22236;SDS011;11287;48.122;11.536;2023-07-29T07:23:14;4.80;;;2.95;;
22236;SDS011;11287;48.122;11.536;2023-07-29T07:25:40;5.03;;;3.30;;
22236;SDS011;11287;48.122;11.536;2023-07-29T07:28:07;4.05;;;3.50;;
22236;SDS011;11287;48.122;11.536;2023-07-29T07:30:32;4.80;;;2.97;;
22236;SDS011;11287;48.122;11.536;2023-07-29T07:32:57;6.20;;;3.13;;
22236;SDS011;11287;48.122;11.536;2023-07-29T07:35:23;4.25;;;3.53;;
22236;SDS011;11287;48.122;11.536;2023-07-29T07:37:48;5.13;;;3.10;;
22236;SDS011;11287;48.122;11.536;2023-07-29T07:40:13;5.15;;;2.72;;
22236;SDS011;11287;48.122;11.536;2023-07-29T07:42:39;5.45;;;3.08;;
22236;SDS011;11287;48.122;11.536;2023-07-29T07:45:04;5.15;;;3.30;;
22236;SDS011;11287;48.122;11.536;2023-07-29T07:47:30;5.20;;;3.60;;
22236;SDS011;11287;48.122;11.536;2023-07-29T07:49:55;3.97;;;3.20;;
22236;SDS011;11287;48.122;11.536;2023-07-29T07:52:21;3.45;;;2.97;;
22236;SDS011;11287;48.122;11.536;2023-07-29T07:54:50;5.05;;;2.90;;
22236;SDS011;11287;48.122;11.536;2023-07-29T07:57:16;3.80;;;3.05;;
22236;SDS011;11287;48.122;11.536;2023-07-29T07:59:42;3.95;;;3.00;;
22236;SDS011;11287;48.122;11.536;2023-07-29T08:02:07;3.08;;;2.83;;
22236;SDS011;11287;48.122;11.536;2023-07-29T08:04:33;4.18;;;3.13;;
22236;SDS011;11287;48.122;11.536;2023-07-29T08:06:58;3.30;;;3.00;;
22236;SDS011;11287;48.122;11.536;2023-07-29T08:09:23;5.20;;;2.80;;
22236;SDS011;11287;48.122;11.536;2023-07-29T08:11:49;4.70;;;2.80;;
22236;SDS011;11287;48.122;11.536;2023-07-29T08:14:14;4.20;;;3.00;;
22236;SDS011;11287;48.122;11.536;2023-07-29T08:16:39;3.17;;;2.80;;
22236;SDS011;11287;48.122;11.536;2023-07-29T08:19:05;4.15;;;2.80;;
22236;SDS011;11287;48.122;11.536;2023-07-29T08:21:30;3.50;;;3.10;;
22236;SDS011;11287;48.122;11.536;2023-07-29T08:23:59;3.33;;;2.70;;
22236;SDS011;11287;48.122;11.536;2023-07-29T08:26:24;3.53;;;2.88;;
22236;SDS011;11287;48.122;11.536;2023-07-29T08:28:49;3.40;;;3.10;;
22236;SDS011;11287;48.122;11.536;2023-07-29T08:31:15;3.72;;;3.13;;
22236;SDS011;11287;48.122;11.536;2023-07-29T08:33:40;3.63;;;3.00;;
22236;SDS011;11287;48.122;11.536;2023-07-29T08:36:05;3.55;;;2.72;;
22236;SDS011;11287;48.122;11.536;2023-07-29T08:38:31;4.85;;;3.63;;
22236;SDS011;11287;48.122;11.536;2023-07-29T08:41:05;2.85;;;2.60;;
22236;SDS011;11287;48.122;11.536;2023-07-29T08:43:37;2.90;;;2.60;;
22236;SDS011;11287;48.122;11.536;2023-07-29T08:46:03;4.65;;;2.75;;
22236;SDS011;11287;48.122;11.536;2023-07-29T08:48:50;3.85;;;2.80;;
22236;SDS011;11287;48.122;11.536;2023-07-29T08:51:14;2.60;;;2.40;;
22236;SDS011;11287;48.122;11.536;2023-07-29T08:53:40;4.45;;;2.70;;
22236;SDS011;11287;48.122;11.536;2023-07-29T08:56:06;3.08;;;2.70;;
22236;SDS011;11287;48.122;11.536;2023-07-29T08:58:32;6.28;;;2.70;;
22236;SDS011;11287;48.122;11.536;2023-07-29T09:00:58;2.58;;;2.38;;
22236;SDS011;11287;48.122;11.536;2023-07-29T09:03:23;3.25;;;2.95;;
22236;SDS011;11287;48.122;11.536;2023-07-29T09:05:48;3.30;;;2.60;;
22236;SDS011;11287;48.122;11.536;2023-07-29T09:08:14;2.63;;;2.33;;
22236;SDS011;11287;48.122;11.536;2023-07-29T09:10:39;4.53;;;2.95;;
22236;SDS011;11287;48.122;11.536;2023-07-29T09:13:05;5.25;;;2.90;;
22236;SDS011;11287;48.122;11.536;2023-07-29T09:15:31;2.97;;;2.78;;
22236;SDS011;11287;48.122;11.536;2023-07-29T09:17:58;2.90;;;2.60;;
22236;SDS011;11287;48.122;11.536;2023-07-29T09:20:24;4.47;;;2.45;;
22236;SDS011;11287;48.122;11.536;2023-07-29T09:22:50;2.67;;;2.47;;
22236;SDS011;11287;48.122;11.536;2023-07-29T09:25:16;2.60;;;2.40;;
22236;SDS011;11287;48.122;11.536;2023-07-29T09:27:42;3.97;;;2.35;;
22236;SDS011;11287;48.122;11.536;2023-07-29T09:30:12;2.63;;;2.42;;
22236;SDS011;11287;48.122;11.536;2023-07-29T09:35:09;2.55;;;2.35;;
22236;SDS011;11287;48.122;11.536;2023-07-29T09:37:36;3.78;;;2.72;;
22236;SDS011;11287;48.122;11.536;2023-07-29T09:40:03;5.45;;;2.67;;
22236;SDS011;11287;48.122;11.536;2023-07-29T09:42:28;3.00;;;2.72;;
22236;SDS011;11287;48.122;11.536;2023-07-29T09:44:54;3.60;;;2.97;;
22236;SDS011;11287;48.122;11.536;2023-07-29T09:47:23;3.38;;;3.08;;
22236;SDS011;11287;48.122;11.536;2023-07-29T09:49:50;3.78;;;2.78;;
22236;SDS011;11287;48.122;11.536;2023-07-29T09:52:19;3.42;;;3.13;;
22236;SDS011;11287;48.122;11.536;2023-07-29T09:54:45;3.08;;;2.78;;
22236;SDS011;11287;48.122;11.536;2023-07-29T09:57:13;4.13;;;2.88;;
22236;SDS011;11287;48.122;11.536;2023-07-29T09:59:39;2.95;;;2.63;;
22236;SDS011;11287;48.122;11.536;2023-07-29T10:02:04;3.45;;;2.90;;
22236;SDS011;11287;48.122;11.536;2023-07-29T10:04:34;4.32;;;2.95;;
22236;SDS011;11287;48.122;11.536;2023-07-29T10:07:00;2.78;;;2.58;;
22236;SDS011;11287;48.122;11.536;2023-07-29T10:09:26;5.47;;;2.90;;
22236;SDS011;11287;48.122;11.536;2023-07-29T10:11:52;2.95;;;2.75;;
22236;SDS011;11287;48.122;11.536;2023-07-29T10:14:18;3.22;;;2.80;;
22236;SDS011;11287;48.122;11.536;2023-07-29T10:16:44;2.78;;;2.58;;
22236;SDS011;11287;48.122;11.536;2023-07-29T10:19:11;3.40;;;2.90;;
22236;SDS011;11287;48.122;11.536;2023-07-29T10:21:39;3.55;;;3.00;;
22236;SDS011;11287;48.122;11.536;2023-07-29T10:24:05;4.03;;;3.00;;
22236;SDS011;11287;48.122;11.536;2023-07-29T10:26:34;3.85;;;3.35;;
22236;SDS011;11287;48.122;11.536;2023-07-29T10:29:01;3.65;;;3.28;;
22236;SDS011;11287;48.122;11.536;2023-07-29T10:31:29;4.05;;;3.47;;
22236;SDS011;11287;48.122;11.536;2023-07-29T10:33:56;5.90;;;3.97;;
22236;SDS011;11287;48.122;11.536;2023-07-29T10:36:22;3.03;;;2.80;;
22236;SDS011;11287;48.122;11.536;2023-07-29T10:38:47;3.05;;;2.78;;
22236;SDS011;11287;48.122;11.536;2023-07-29T10:41:12;3.20;;;3.00;;
22236;SDS011;11287;48.122;11.536;2023-07-29T10:43:38;2.97;;;2.57;;
22236;SDS011;11287;48.122;11.536;2023-07-29T10:46:17;3.05;;;2.72;;
22236;SDS011;11287;48.122;11.536;2023-07-29T10:48:44;3.15;;;2.85;;
22236;SDS011;11287;48.122;11.536;2023-07-29T10:53:47;2.90;;;2.70;;
22236;SDS011;11287;48.122;11.536;2023-07-29T10:56:12;3.67;;;2.93;;
22236;SDS011;11287;48.122;11.536;2023-07-29T10:58:37;3.10;;;2.65;;
22236;SDS011;11287;48.122;11.536;2023-07-29T11:01:03;4.70;;;3.10;;
22236;SDS011;11287;48.122;11.536;2023-07-29T11:03:37;3.63;;;3.33;;
22236;SDS011;11287;48.122;11.536;2023-07-29T11:06:04;6.53;;;4.25;;
22236;SDS011;11287;48.122;11.536;2023-07-29T11:08:30;4.00;;;3.60;;
22236;SDS011;11287;48.122;11.536;2023-07-29T11:11:03;3.60;;;3.25;;
22236;SDS011;11287;48.122;11.536;2023-07-29T11:13:33;3.20;;;2.90;;
22236;SDS011;11287;48.122;11.536;2023-07-29T11:16:00;3.70;;;3.40;;
22236;SDS011;11287;48.122;11.536;2023-07-29T11:18:34;3.80;;;2.70;;
22236;SDS011;11287;48.122;11.536;2023-07-29T11:21:00;3.67;;;2.10;;
22236;SDS011;11287;48.122;11.536;2023-07-29T11:23:28;1.95;;;1.85;;
22236;SDS011;11287;48.122;11.536;2023-07-29T11:28:26;5.78;;;2.00;;
22236;SDS011;11287;48.122;11.536;2023-07-29T11:30:51;2.55;;;1.58;;
22236;SDS011;11287;48.122;11.536;2023-07-29T11:33:20;2.33;;;2.13;;
22236;SDS011;11287;48.122;11.536;2023-07-29T11:35:47;2.70;;;2.50;;
22236;SDS011;11287;48.122;11.536;2023-07-29T11:38:16;2.70;;;2.50;;
22236;SDS011;11287;48.122;11.536;2023-07-29T11:40:42;2.30;;;1.73;;
22236;SDS011;11287;48.122;11.536;2023-07-29T11:43:08;12.10;;;9.90;;
22236;SDS011;11287;48.122;11.536;2023-07-29T11:45:33;2.30;;;2.10;;
22236;SDS011;11287;48.122;11.536;2023-07-29T11:48:00;2.08;;;1.88;;
22236;SDS011;11287;48.122;11.536;2023-07-29T11:50:26;2.13;;;1.80;;
22236;SDS011;11287;48.122;11.536;2023-07-29T11:52:51;2.08;;;1.95;;
22236;SDS011;11287;48.122;11.536;2023-07-29T11:55:17;3.15;;;2.65;;
22236;SDS011;11287;48.122;11.536;2023-07-29T11:57:44;3.03;;;2.60;;
22236;SDS011;11287;48.122;11.536;2023-07-29T12:00:09;2.28;;;2.08;;
22236;SDS011;11287;48.122;11.536;2023-07-29T12:02:37;4.28;;;2.33;;
22236;SDS011;11287;48.122;11.536;2023-07-29T12:05:04;3.97;;;2.47;;
22236;SDS011;11287;48.122;11.536;2023-07-29T12:07:30;3.70;;;2.05;;
22236;SDS011;11287;48.122;11.536;2023-07-29T12:09:55;11.20;;;4.88;;
22236;SDS011;11287;48.122;11.536;2023-07-29T12:12:22;2.45;;;2.10;;
22236;SDS011;11287;48.122;11.536;2023-07-29T12:14:47;4.65;;;2.53;;
22236;SDS011;11287;48.122;11.536;2023-07-29T12:17:13;2.85;;;2.50;;
22236;SDS011;11287;48.122;11.536;2023-07-29T12:19:38;2.13;;;1.90;;
22236;SDS011;11287;48.122;11.536;2023-07-29T12:22:05;2.35;;;1.90;;
22236;SDS011;11287;48.122;11.536;2023-07-29T12:24:32;2.60;;;2.33;;
22236;SDS011;11287;48.122;11.536;2023-07-29T12:26:58;6.05;;;3.40;;
22236;SDS011;11287;48.122;11.536;2023-07-29T12:29:23;4.15;;;3.08;;
22236;SDS011;11287;48.122;11.536;2023-07-29T12:31:49;2.75;;;2.55;;
22236;SDS011;11287;48.122;11.536;2023-07-29T12:34:24;3.13;;;2.63;;
22236;SDS011;11287;48.122;11.536;2023-07-29T12:36:50;6.28;;;5.78;;
22236;SDS011;11287;48.122;11.536;2023-07-29T12:39:17;4.45;;;2.78;;
22236;SDS011;11287;48.122;11.536;2023-07-29T12:41:43;4.88;;;2.70;;
22236;SDS011;11287;48.122;11.536;2023-07-29T12:44:09;3.15;;;2.65;;
22236;SDS011;11287;48.122;11.536;2023-07-29T12:46:34;3.92;;;2.90;;
22236;SDS011;11287;48.122;11.536;2023-07-29T12:48:59;4.22;;;2.80;;
22236;SDS011;11287;48.122;11.536;2023-07-29T12:51:24;8.90;;;7.73;;
22236;SDS011;11287;48.122;11.536;2023-07-29T12:53:50;7.83;;;5.23;;
22236;SDS011;11287;48.122;11.536;2023-07-29T12:56:15;3.00;;;2.80;;
22236;SDS011;11287;48.122;11.536;2023-07-29T12:58:41;2.47;;;2.22;;
22236;SDS011;11287;48.122;11.536;2023-07-29T13:01:06;2.67;;;2.47;;
22236;SDS011;11287;48.122;11.536;2023-07-29T13:03:31;2.55;;;2.35;;
22236;SDS011;11287;48.122;11.536;2023-07-29T13:05:57;6.00;;;2.47;;
22236;SDS011;11287;48.122;11.536;2023-07-29T13:08:22;4.23;;;2.37;;
22236;SDS011;11287;48.122;11.536;2023-07-29T13:10:48;3.47;;;2.50;;
22236;SDS011;11287;48.122;11.536;2023-07-29T13:13:13;3.10;;;2.80;;
22236;SDS011;11287;48.122;11.536;2023-07-29T13:15:38;5.78;;;3.40;;
22236;SDS011;11287;48.122;11.536;2023-07-29T13:18:04;7.77;;;3.87;;
22236;SDS011;11287;48.122;11.536;2023-07-29T13:20:29;4.77;;;3.53;;
22236;SDS011;11287;48.122;11.536;2023-07-29T13:22:55;6.25;;;3.97;;
22236;SDS011;11287;48.122;11.536;2023-07-29T13:25:20;5.23;;;3.63;;
22236;SDS011;11287;48.122;11.536;2023-07-29T13:27:45;6.00;;;3.30;;
22236;SDS011;11287;48.122;11.536;2023-07-29T13:30:11;5.20;;;3.93;;
22236;SDS011;11287;48.122;11.536;2023-07-29T13:32:36;4.25;;;3.63;;
22236;SDS011;11287;48.122;11.536;2023-07-29T13:35:01;4.43;;;3.80;;
22236;SDS011;11287;48.122;11.536;2023-07-29T13:37:27;5.85;;;3.92;;
22236;SDS011;11287;48.122;11.536;2023-07-29T13:39:52;6.70;;;4.20;;
22236;SDS011;11287;48.122;11.536;2023-07-29T13:42:17;4.77;;;4.37;;
22236;SDS011;11287;48.122;11.536;2023-07-29T13:44:42;5.43;;;4.70;;
22236;SDS011;11287;48.122;11.536;2023-07-29T13:47:08;7.50;;;4.78;;
22236;SDS011;11287;48.122;11.536;2023-07-29T13:49:33;8.38;;;5.50;;
22236;SDS011;11287;48.122;11.536;2023-07-29T13:51:58;7.93;;;5.27;;
22236;SDS011;11287;48.122;11.536;2023-07-29T13:54:24;6.40;;;5.20;;
22236;SDS011;11287;48.122;11.536;2023-07-29T13:56:49;12.75;;;5.47;;
22236;SDS011;11287;48.122;11.536;2023-07-29T13:59:14;7.20;;;5.50;;
22236;SDS011;11287;48.122;11.536;2023-07-29T14:01:39;6.00;;;4.87;;
22236;SDS011;11287;48.122;11.536;2023-07-29T14:04:05;8.27;;;6.10;;
22236;SDS011;11287;48.122;11.536;2023-07-29T14:06:30;5.97;;;5.17;;
22236;SDS011;11287;48.122;11.536;2023-07-29T14:08:55;7.20;;;5.22;;
22236;SDS011;11287;48.122;11.536;2023-07-29T14:11:21;7.17;;;6.03;;
22236;SDS011;11287;48.122;11.536;2023-07-29T14:13:46;8.38;;;5.90;;
22236;SDS011;11287;48.122;11.536;2023-07-29T14:16:11;5.37;;;4.87;;
22236;SDS011;11287;48.122;11.536;2023-07-29T14:18:36;6.70;;;5.43;;
22236;SDS011;11287;48.122;11.536;2023-07-29T14:21:02;6.35;;;4.65;;
22236;SDS011;11287;48.122;11.536;2023-07-29T14:23:27;8.88;;;4.90;;
22236;SDS011;11287;48.122;11.536;2023-07-29T14:25:52;5.95;;;5.35;;
22236;SDS011;11287;48.122;11.536;2023-07-29T14:28:18;5.88;;;4.78;;
22236;SDS011;11287;48.122;11.536;2023-07-29T14:30:43;5.20;;;4.35;;
22236;SDS011;11287;48.122;11.536;2023-07-29T14:33:08;7.72;;;5.38;;
22236;SDS011;11287;48.122;11.536;2023-07-29T14:35:34;5.57;;;5.05;;
22236;SDS011;11287;48.122;11.536;2023-07-29T14:38:00;9.35;;;6.18;;
22236;SDS011;11287;48.122;11.536;2023-07-29T14:40:25;7.95;;;5.93;;